Terminal Aerodrome Forecast
Issued by NWS

Home | Current Version | Previous Version | Text Only | Print | Product List | Glossary On
Versions: 1 2 3 4 5 6 7 8 9 10 11 12 13 14 15 16 17 18 19 20 21 22 23 24 25 26 27 28
000
FTUS41 KBUF 021700
TAFIAG
TAF
KIAG 021732Z 0218/0318 28019G25KT 6SM -SN BLSN BKN035
     FM022000 28016KT 6SM BLSN FEW250
     FM022300 28011KT P6SM FEW030
     FM030400 23004KT P6SM FEW250
     FM030600 19004KT P6SM FEW250
     FM031200 15004KT P6SM OVC120=

USA.gov is the U.S. government's official web portal to all federal, state and local government web resources and services.